Pavillion, Wyoming
Current Conditions -  °F | °C
As of 2:53 AM on Thursday 23 Oct 2014 (Local Time) from KRIW Reporting Station
Clear Clear  
Wind Chill: 31°   Ceiling: Unl
Heat Index: 38°   Visibility: 10mi
Dew Point: 19°   Wind: 10mph
Humidity: 47%   Direction: 240°WSW
Pressure: 30.1"   Gusts: NA
Location:  43.24°N, 108.69°W
Report Text: KRIW 230853Z AUTO 24009KT 10SM CLR 03/M07 A3010 RMK AO2 SLP174 T00331072 55003
Loading
Personal Weather Stations






























Interactive Weather Map
Tropical Storm Tracking
New forecast layout! Learn more

10-Day Weather Forecast

Advertisements
Track Severe Weather on mobile